SAZM/MDD METAR and TAF weather

Enter ICAO airport designator
Station Type Date Time Source
SAZM METAR 2019/02/18 04:00 UTC NOAA

SAZM 180400Z 01010KT 330V030 CAVOK 20/19 Q1011


Station Type Date Time Source
SAZM Decoded METAR 2019/02/18 04:00 UTC NOAA

Mar Del Plata Aerodrome, Argentina (SAZM) 37-56S 057-35W 21M
Feb 17, 2019 - 11:00 PM EST / 2019.02.18 0400 UTC
Wind: from the N (010 degrees) at 12 MPH (10 KT) (direction variable):0
Visibility: greater than 7 mile(s):0
Temperature: 68 F (20 C)
Dew Point: 66 F (19 C)
Relative Humidity: 93%
Pressure (altimeter): 29.85 in. Hg (1011 hPa)
ob: SAZM 180400Z 01010KT 330V030 CAVOK 20/19 Q1011
cycle: 4

Station Type Date Time Source
SAZM TAF 2019/02/18 00:00 UTC NOAA

TAF SAZM 172300Z 1800/1824 05015KT CAVOK TX35/1818Z TN20/1810Z
TEMPO 1800/1805 05020G30KT
BECMG 1806/1808 34010KT
BECMG 1819/1821 25005KT 9999 SCT040 BKN060


Example: see airport list